createdAt,value
2023-05-21T00:00:30.423Z,17.00
2023-05-21T00:02:04.013Z,17.00
2023-05-21T00:03:36.816Z,17.00
2023-05-21T00:05:14.325Z,17.00
2023-05-21T00:06:47.478Z,17.00
2023-05-21T00:08:20.226Z,17.00
2023-05-21T00:09:52.977Z,17.00
2023-05-21T00:11:25.932Z,16.90
2023-05-21T00:12:58.719Z,16.90
2023-05-21T00:14:32.789Z,16.90
2023-05-21T00:16:06.090Z,16.80
2023-05-21T00:17:39.851Z,16.80
2023-05-21T00:19:12.693Z,16.80
2023-05-21T00:20:45.674Z,16.80
2023-05-21T00:22:18.488Z,16.80
2023-05-21T00:23:51.232Z,16.80
2023-05-21T00:25:23.984Z,16.80
2023-05-21T00:26:56.045Z,16.80
2023-05-21T00:28:28.948Z,16.80
2023-05-21T00:30:03.297Z,16.80
2023-05-21T00:31:35.210Z,16.80
2023-05-21T00:33:10.311Z,16.90
2023-05-21T00:34:43.163Z,16.80
2023-05-21T00:36:15.931Z,16.90
2023-05-21T00:37:48.671Z,16.80
2023-05-21T00:39:21.401Z,16.80
2023-05-21T00:40:54.186Z,16.80
2023-05-21T00:42:27.327Z,16.80
2023-05-21T00:44:00.317Z,16.80
2023-05-21T00:45:37.203Z,16.80
2023-05-21T00:47:10.303Z,16.70
2023-05-21T00:48:43.549Z,16.80
2023-05-21T00:50:17.453Z,16.70
2023-05-21T00:51:49.615Z,16.70
2023-05-21T00:53:22.437Z,16.70
2023-05-21T00:54:55.910Z,16.70
2023-05-21T00:56:28.712Z,16.60
2023-05-21T00:58:01.462Z,16.60
2023-05-21T00:59:34.555Z,16.50
2023-05-21T01:01:13.959Z,16.50
2023-05-21T01:02:47.706Z,16.50
2023-05-21T01:04:21.332Z,16.50
2023-05-21T01:05:53.240Z,16.50
2023-05-21T01:07:26.181Z,16.50
2023-05-21T01:08:59.728Z,16.50
2023-05-21T01:10:32.484Z,16.50
2023-05-21T01:12:06.459Z,16.60
2023-05-21T01:13:40.946Z,16.50
2023-05-21T01:15:14.059Z,16.60
2023-05-21T01:16:50.207Z,16.50
2023-05-21T01:18:23.490Z,16.50
2023-05-21T01:19:57.411Z,16.50
2023-05-21T01:21:31.259Z,16.50
2023-05-21T01:23:06.250Z,16.50
2023-05-21T01:24:38.218Z,16.60
2023-05-21T01:26:12.904Z,16.60
2023-05-21T01:27:45.853Z,16.50
2023-05-21T01:29:19.278Z,16.50
2023-05-21T01:30:52.246Z,16.50
2023-05-21T01:32:29.759Z,16.60
2023-05-21T01:34:05.884Z,16.50
2023-05-21T01:35:43.979Z,16.50
2023-05-21T01:37:21.737Z,16.50
2023-05-21T01:39:02.041Z,16.50
2023-05-21T01:40:40.295Z,16.50
2023-05-21T01:42:15.552Z,16.50
2023-05-21T01:43:49.069Z,16.50
2023-05-21T01:45:24.831Z,16.50
2023-05-21T01:46:58.258Z,16.50
2023-05-21T01:48:31.504Z,16.50
2023-05-21T01:50:04.767Z,16.50
2023-05-21T01:51:37.826Z,16.60
2023-05-21T01:53:10.654Z,16.50
2023-05-21T01:54:44.737Z,16.50
2023-05-21T01:56:17.529Z,16.50
2023-05-21T01:57:51.078Z,16.50
2023-05-21T01:59:23.985Z,16.50
2023-05-21T02:00:56.971Z,16.50
2023-05-21T02:02:29.926Z,16.50
2023-05-21T02:04:02.902Z,16.50
2023-05-21T02:05:35.972Z,16.50
2023-05-21T02:07:08.055Z,16.50
2023-05-21T02:08:40.795Z,16.50
2023-05-21T02:10:15.757Z,16.50
2023-05-21T02:11:48.488Z,16.50
2023-05-21T02:13:24.965Z,16.50
2023-05-21T02:14:59.766Z,16.50
2023-05-21T02:16:32.651Z,16.50
2023-05-21T02:18:05.521Z,16.50
2023-05-21T02:19:38.353Z,16.50
2023-05-21T02:21:12.004Z,16.50
2023-05-21T02:22:45.574Z,16.50
2023-05-21T02:24:18.308Z,16.40
2023-05-21T02:25:52.647Z,16.40
2023-05-21T02:27:24.433Z,16.40
2023-05-21T02:28:57.155Z,16.50
2023-05-21T02:30:30.116Z,16.40
2023-05-21T02:32:03.030Z,16.40
2023-05-21T02:33:34.923Z,16.40
2023-05-21T02:35:08.212Z,16.50
2023-05-21T02:36:41.624Z,16.50
2023-05-21T02:38:13.687Z,16.40
2023-05-21T02:39:46.773Z,16.50
2023-05-21T02:41:21.103Z,16.40
2023-05-21T02:42:53.955Z,16.40
2023-05-21T02:44:26.680Z,16.50
2023-05-21T02:45:59.428Z,16.40
2023-05-21T02:47:31.257Z,16.40
2023-05-21T02:49:04.113Z,16.40
2023-05-21T02:50:36.830Z,16.50
2023-05-21T02:52:08.649Z,16.50
2023-05-21T02:53:41.376Z,16.40
2023-05-21T02:55:13.185Z,16.40
2023-05-21T02:56:47.282Z,16.40
2023-05-21T02:58:19.475Z,16.40
2023-05-21T02:59:52.248Z,16.40
2023-05-21T03:01:25.012Z,16.40
2023-05-21T03:02:56.905Z,16.40
2023-05-21T03:04:29.730Z,16.30
2023-05-21T03:06:01.554Z,16.40
2023-05-21T03:07:34.260Z,16.40
2023-05-21T03:09:07.082Z,16.30
2023-05-21T03:10:39.860Z,16.30
2023-05-21T03:12:14.000Z,16.30
2023-05-21T03:13:47.003Z,16.30
2023-05-21T03:15:23.811Z,16.30
2023-05-21T03:16:56.639Z,16.30
2023-05-21T03:18:29.432Z,16.30
2023-05-21T03:20:02.175Z,16.30
2023-05-21T03:21:34.073Z,16.30
2023-05-21T03:23:06.801Z,16.30
2023-05-21T03:24:38.681Z,16.30
2023-05-21T03:26:11.482Z,16.30
2023-05-21T03:27:45.605Z,16.30
2023-05-21T03:29:18.355Z,16.30
2023-05-21T03:30:51.992Z,16.30
2023-05-21T03:32:24.884Z,16.30
2023-05-21T03:33:57.710Z,16.30
2023-05-21T03:35:30.464Z,16.30
2023-05-21T03:37:03.223Z,16.30
2023-05-21T03:38:37.169Z,16.30
2023-05-21T03:40:10.783Z,16.20
2023-05-21T03:41:42.968Z,16.20
2023-05-21T03:43:17.044Z,16.20
2023-05-21T03:44:48.836Z,16.20
2023-05-21T03:46:21.628Z,16.20
2023-05-21T03:47:54.480Z,16.20
2023-05-21T03:49:27.355Z,16.20
2023-05-21T03:51:00.362Z,16.20
2023-05-21T03:52:32.190Z,16.20
2023-05-21T03:54:05.116Z,16.20
2023-05-21T03:55:38.034Z,16.20
2023-05-21T03:57:10.909Z,16.20
2023-05-21T03:58:44.985Z,16.20
2023-05-21T04:00:17.046Z,16.20
2023-05-21T04:01:49.786Z,16.10
2023-05-21T04:03:21.735Z,16.20
2023-05-21T04:04:55.740Z,16.10
2023-05-21T04:06:30.092Z,16.10
2023-05-21T04:08:02.853Z,16.20
2023-05-21T04:09:36.681Z,16.20
2023-05-21T04:11:09.626Z,16.20
2023-05-21T04:12:41.454Z,16.20
2023-05-21T04:14:15.930Z,16.20
2023-05-21T04:15:48.950Z,16.20
2023-05-21T04:17:21.924Z,16.20
2023-05-21T04:18:56.104Z,16.10
2023-05-21T04:20:28.925Z,16.10
2023-05-21T04:22:00.991Z,16.10
2023-05-21T04:23:36.578Z,16.10
2023-05-21T04:25:10.004Z,16.10
2023-05-21T04:26:43.247Z,16.10
2023-05-21T04:28:20.223Z,16.10
2023-05-21T04:29:54.950Z,16.10
2023-05-21T04:31:27.724Z,16.10
2023-05-21T04:33:00.723Z,16.10
2023-05-21T04:34:33.878Z,16.10
2023-05-21T04:36:09.757Z,16.10
2023-05-21T04:37:45.803Z,16.10
2023-05-21T04:39:18.545Z,16.10
2023-05-21T04:40:51.896Z,16.10
2023-05-21T04:42:24.876Z,16.20
2023-05-21T04:43:58.653Z,16.20
2023-05-21T04:45:32.776Z,16.20
2023-05-21T04:47:04.841Z,16.30
2023-05-21T04:48:37.660Z,16.30
2023-05-21T04:50:11.887Z,16.40
2023-05-21T04:51:44.631Z,16.40
2023-05-21T04:53:16.477Z,16.50
2023-05-21T04:54:49.850Z,16.50
2023-05-21T04:56:22.801Z,16.50
2023-05-21T04:57:55.666Z,16.50
2023-05-21T04:59:28.417Z,16.50
2023-05-21T05:01:03.277Z,16.60
2023-05-21T05:02:36.230Z,16.60
2023-05-21T05:04:09.496Z,16.70
2023-05-21T05:05:42.332Z,16.70
2023-05-21T05:07:15.499Z,16.80
2023-05-21T05:08:48.266Z,16.80
2023-05-21T05:10:20.982Z,16.90
2023-05-21T05:11:52.792Z,16.90
2023-05-21T05:13:26.099Z,16.90
2023-05-21T05:14:58.825Z,17.00
2023-05-21T05:16:35.491Z,17.10
2023-05-21T05:18:09.285Z,17.10
2023-05-21T05:19:42.075Z,17.10
2023-05-21T05:21:13.859Z,17.20
2023-05-21T05:22:46.595Z,17.30
2023-05-21T05:24:19.374Z,17.30
2023-05-21T05:25:52.501Z,17.30
2023-05-21T05:27:25.612Z,17.30
2023-05-21T05:28:58.368Z,17.30
2023-05-21T05:30:31.266Z,17.40
2023-05-21T05:32:05.985Z,17.50
2023-05-21T05:33:38.753Z,17.50
2023-05-21T05:35:11.555Z,17.50
2023-05-21T05:36:44.279Z,17.60
2023-05-21T05:38:17.421Z,17.70
2023-05-21T05:39:49.246Z,17.60
2023-05-21T05:41:22.584Z,17.70
2023-05-21T05:42:55.388Z,17.80
2023-05-21T05:44:28.242Z,17.80
2023-05-21T05:46:01.191Z,17.80
2023-05-21T05:47:35.613Z,17.80
2023-05-21T05:49:08.333Z,17.90
2023-05-21T05:50:41.131Z,17.90
2023-05-21T05:52:14.194Z,17.90
2023-05-21T05:53:46.907Z,18.00
2023-05-21T05:55:19.667Z,18.00
2023-05-21T05:56:52.411Z,18.00
2023-05-21T05:58:25.160Z,18.10
2023-05-21T05:59:57.905Z,18.10
2023-05-21T06:01:31.951Z,18.10
2023-05-21T06:03:06.382Z,18.10
2023-05-21T06:04:39.145Z,18.20
2023-05-21T06:06:11.577Z,18.20
2023-05-21T06:07:44.388Z,18.20
2023-05-21T06:09:17.143Z,18.30
2023-05-21T06:10:49.869Z,18.30
2023-05-21T06:12:22.599Z,18.30
2023-05-21T06:13:55.471Z,18.30
2023-05-21T06:15:28.200Z,18.30
2023-05-21T06:17:01.026Z,18.30
2023-05-21T06:18:35.076Z,18.40
2023-05-21T06:20:10.346Z,18.40
2023-05-21T06:21:43.098Z,18.40
2023-05-21T06:23:15.979Z,18.50
2023-05-21T06:24:48.772Z,18.60
2023-05-21T06:26:21.897Z,18.60
2023-05-21T06:27:54.681Z,18.80
2023-05-21T06:29:27.449Z,18.80
2023-05-21T06:31:00.191Z,18.90
2023-05-21T06:32:33.015Z,18.90
2023-05-21T06:34:06.328Z,19.00
2023-05-21T06:35:40.128Z,19.10
2023-05-21T06:37:12.865Z,19.20
2023-05-21T06:38:45.604Z,19.30
2023-05-21T06:40:17.502Z,19.30
2023-05-21T06:41:50.263Z,19.40
2023-05-21T06:43:22.221Z,19.50
2023-05-21T06:44:54.963Z,19.50
2023-05-21T06:46:27.783Z,19.70
2023-05-21T06:48:00.697Z,19.80
2023-05-21T06:49:35.259Z,19.90
2023-05-21T06:51:08.072Z,20.00
2023-05-21T06:52:40.855Z,20.10
2023-05-21T06:54:14.197Z,20.20
2023-05-21T06:55:47.073Z,20.30
2023-05-21T06:57:19.944Z,20.40
2023-05-21T06:58:53.165Z,20.50
2023-05-21T07:00:26.245Z,20.60
2023-05-21T07:01:59.020Z,20.90
2023-05-21T07:03:31.838Z,21.00
2023-05-21T07:05:06.570Z,21.20
2023-05-21T07:06:40.236Z,21.30
2023-05-21T07:08:12.991Z,21.50
2023-05-21T07:09:45.742Z,21.60
2023-05-21T07:11:18.487Z,21.70
2023-05-21T07:12:51.208Z,21.90
2023-05-21T07:14:25.736Z,22.10
2023-05-21T07:16:00.324Z,22.10
2023-05-21T07:17:33.103Z,22.20
2023-05-21T07:19:06.151Z,22.40
2023-05-21T07:20:40.266Z,22.40
2023-05-21T07:22:13.633Z,22.50
2023-05-21T07:23:46.383Z,22.50
2023-05-21T07:25:18.197Z,22.50
2023-05-21T07:26:50.986Z,22.60
2023-05-21T07:28:23.794Z,22.60
2023-05-21T07:29:56.551Z,22.70
2023-05-21T07:31:29.388Z,22.80
2023-05-21T07:33:02.298Z,22.70
2023-05-21T07:34:35.042Z,22.70
2023-05-21T07:36:09.298Z,22.80
2023-05-21T07:37:41.647Z,22.80
2023-05-21T07:39:14.480Z,22.90
2023-05-21T07:40:47.276Z,23.00
2023-05-21T07:42:19.995Z,23.10
2023-05-21T07:43:52.725Z,23.00
2023-05-21T07:45:25.642Z,23.00
2023-05-21T07:46:58.576Z,23.00
2023-05-21T07:48:33.541Z,22.90
2023-05-21T07:50:08.166Z,22.80
2023-05-21T07:51:42.564Z,22.80
2023-05-21T07:53:14.419Z,22.80
2023-05-21T07:54:47.208Z,22.90
2023-05-21T07:56:19.939Z,22.90
2023-05-21T07:57:53.190Z,22.90
2023-05-21T07:59:26.298Z,23.00
2023-05-21T08:00:59.045Z,23.10
2023-05-21T08:02:31.860Z,23.10
2023-05-21T08:04:06.685Z,23.10
2023-05-21T08:05:39.648Z,23.10
2023-05-21T08:07:15.125Z,23.20
2023-05-21T08:08:47.880Z,23.10
2023-05-21T08:10:20.606Z,23.20
2023-05-21T08:11:53.400Z,23.20
2023-05-21T08:13:26.233Z,23.30
2023-05-21T08:14:59.187Z,23.30
2023-05-21T08:16:32.379Z,23.30
2023-05-21T08:18:05.777Z,23.30
2023-05-21T08:19:38.617Z,23.40
2023-05-21T08:21:11.760Z,23.30
2023-05-21T08:22:46.009Z,23.30
2023-05-21T08:24:18.773Z,23.20
2023-05-21T08:25:53.204Z,23.30
2023-05-21T08:27:25.975Z,23.20
2023-05-21T08:28:59.147Z,23.20
2023-05-21T08:30:31.863Z,23.20
2023-05-21T08:32:04.972Z,23.10
2023-05-21T08:33:38.206Z,23.00
2023-05-21T08:35:11.100Z,22.90
2023-05-21T08:36:46.010Z,22.90
2023-05-21T08:38:20.174Z,23.00
2023-05-21T08:39:52.967Z,23.00
2023-05-21T08:41:26.877Z,23.10
2023-05-21T08:42:58.705Z,23.10
2023-05-21T08:44:35.589Z,23.20
2023-05-21T08:46:10.816Z,23.30
2023-05-21T08:47:44.533Z,23.30
2023-05-21T08:49:19.587Z,23.40
2023-05-21T08:50:53.423Z,23.50
2023-05-21T08:52:27.120Z,23.50
2023-05-21T08:54:03.507Z,23.60
2023-05-21T08:55:38.837Z,23.70
2023-05-21T08:57:10.991Z,23.80
2023-05-21T08:58:45.975Z,23.90
2023-05-21T09:00:20.670Z,24.00
2023-05-21T09:01:54.087Z,24.20
2023-05-21T09:03:27.535Z,24.30
2023-05-21T09:05:03.142Z,24.50
2023-05-21T09:06:36.144Z,24.60
2023-05-21T09:08:15.932Z,24.80
2023-05-21T09:09:55.815Z,24.80
2023-05-21T09:11:28.662Z,24.80
2023-05-21T09:13:01.576Z,24.80
2023-05-21T09:14:34.951Z,24.80
2023-05-21T09:16:08.990Z,24.80
2023-05-21T09:17:41.778Z,24.70
2023-05-21T09:19:14.648Z,24.70
2023-05-21T09:20:47.410Z,24.80
2023-05-21T09:22:24.598Z,24.70
2023-05-21T09:23:58.632Z,24.70
2023-05-21T09:25:33.341Z,24.80
2023-05-21T09:27:08.003Z,24.90
2023-05-21T09:28:40.819Z,24.90
2023-05-21T09:30:15.173Z,25.10
2023-05-21T09:31:48.164Z,25.10
2023-05-21T09:33:29.217Z,25.10
2023-05-21T09:35:09.394Z,25.10
2023-05-21T09:36:43.702Z,25.00
2023-05-21T09:38:16.564Z,25.00
2023-05-21T09:39:49.470Z,25.10
2023-05-21T09:41:32.474Z,25.10
2023-05-21T09:43:06.310Z,25.30
2023-05-21T09:44:38.148Z,25.40
2023-05-21T09:46:11.012Z,25.60
2023-05-21T09:47:44.665Z,25.60
2023-05-21T09:49:26.149Z,25.70
2023-05-21T09:51:11.892Z,25.70
2023-05-21T09:52:44.639Z,25.80
2023-05-21T09:54:17.422Z,25.90
2023-05-21T09:55:58.308Z,26.10
2023-05-21T09:57:32.459Z,26.10
2023-05-21T09:59:05.414Z,26.10
2023-05-21T10:00:38.324Z,26.10
2023-05-21T10:02:20.547Z,26.20
2023-05-21T10:03:57.253Z,26.40
2023-05-21T10:05:31.228Z,26.40
2023-05-21T10:07:04.124Z,26.40
2023-05-21T10:08:37.381Z,26.30
2023-05-21T10:10:14.553Z,26.20
2023-05-21T10:11:49.993Z,26.30
2023-05-21T10:13:25.147Z,26.30
2023-05-21T10:15:05.369Z,26.30
2023-05-21T10:16:38.447Z,26.30
2023-05-21T10:18:12.288Z,26.30
2023-05-21T10:19:47.176Z,26.30
2023-05-21T10:21:20.262Z,26.30
2023-05-21T10:22:53.909Z,26.20
2023-05-21T10:24:27.418Z,26.20
2023-05-21T10:26:00.996Z,26.30
2023-05-21T10:27:35.766Z,26.40
2023-05-21T10:29:09.931Z,26.30
2023-05-21T10:30:43.368Z,26.30
2023-05-21T10:32:17.339Z,26.30
2023-05-21T10:33:50.283Z,26.30
2023-05-21T10:35:23.981Z,26.30
2023-05-21T10:36:58.846Z,26.30
2023-05-21T10:38:34.431Z,26.30
2023-05-21T10:40:08.593Z,26.30
2023-05-21T10:41:52.369Z,26.20
2023-05-21T10:43:39.818Z,26.10
2023-05-21T10:45:22.630Z,26.10
2023-05-21T10:47:34.196Z,26.20
2023-05-21T10:49:22.567Z,26.30
2023-05-21T10:51:17.413Z,26.40
2023-05-21T10:53:09.949Z,26.40
2023-05-21T10:54:59.014Z,26.30
2023-05-21T10:56:39.766Z,26.20
2023-05-21T10:58:31.076Z,26.10
2023-05-21T11:00:05.016Z,26.00
2023-05-21T11:01:40.454Z,25.90
2023-05-21T11:03:14.827Z,25.80
2023-05-21T11:04:58.712Z,25.80
2023-05-21T11:06:31.036Z,25.90
2023-05-21T11:08:04.262Z,25.90
2023-05-21T11:09:37.055Z,26.00
2023-05-21T11:11:09.306Z,26.00
2023-05-21T11:13:06.260Z,26.00
2023-05-21T11:14:40.395Z,26.00
2023-05-21T11:16:16.795Z,25.90
2023-05-21T11:17:51.249Z,25.90
2023-05-21T11:19:35.374Z,25.90
2023-05-21T11:21:10.002Z,26.00
2023-05-21T11:22:42.857Z,25.90
2023-05-21T11:24:20.901Z,26.00
2023-05-21T11:26:01.232Z,26.00
2023-05-21T11:27:35.622Z,25.90
2023-05-21T11:29:08.525Z,25.90
2023-05-21T11:30:41.398Z,25.90
2023-05-21T11:32:17.360Z,25.80
2023-05-21T11:34:09.767Z,25.80
2023-05-21T11:35:59.227Z,25.90
2023-05-21T11:37:34.522Z,26.00
2023-05-21T11:39:11.698Z,26.10
2023-05-21T11:40:54.588Z,26.20
2023-05-21T11:42:31.668Z,26.20
2023-05-21T11:44:09.657Z,26.30
2023-05-21T11:45:46.779Z,26.30
2023-05-21T11:47:19.875Z,26.30
2023-05-21T11:48:54.945Z,26.30
2023-05-21T11:50:30.582Z,26.40
2023-05-21T11:52:03.740Z,26.30
2023-05-21T11:53:38.727Z,26.30
2023-05-21T11:55:12.192Z,26.20
2023-05-21T11:56:45.165Z,26.20
2023-05-21T11:58:20.063Z,26.20
2023-05-21T11:59:52.166Z,26.20
2023-05-21T12:01:26.413Z,26.30
2023-05-21T12:02:59.328Z,26.30
2023-05-21T12:04:33.001Z,26.30
2023-05-21T12:06:06.497Z,26.30
2023-05-21T12:07:39.515Z,26.30
2023-05-21T12:09:13.772Z,26.20
2023-05-21T12:10:46.621Z,26.20
2023-05-21T12:12:21.315Z,26.10
2023-05-21T12:13:54.111Z,26.10
2023-05-21T12:15:28.101Z,26.10
2023-05-21T12:17:00.180Z,26.10
2023-05-21T12:18:33.001Z,26.00
2023-05-21T12:20:10.604Z,26.00
2023-05-21T12:21:43.486Z,26.00
2023-05-21T12:23:21.015Z,26.00
2023-05-21T12:24:54.572Z,26.00
2023-05-21T12:26:28.132Z,26.00
2023-05-21T12:28:03.391Z,26.00
2023-05-21T12:29:36.641Z,26.00
2023-05-21T12:31:15.946Z,26.10
2023-05-21T12:32:50.205Z,26.10
2023-05-21T12:34:39.243Z,26.10
2023-05-21T12:36:22.943Z,26.00
2023-05-21T12:37:55.774Z,26.00
2023-05-21T12:39:27.622Z,26.00
2023-05-21T12:41:04.881Z,26.00
2023-05-21T12:42:40.071Z,26.00
2023-05-21T12:44:11.964Z,26.00
2023-05-21T12:45:45.041Z,26.10
2023-05-21T12:47:18.330Z,26.10
2023-05-21T12:48:51.444Z,26.10
2023-05-21T12:50:24.485Z,26.10
2023-05-21T12:51:59.138Z,26.10
2023-05-21T12:53:38.163Z,26.10
2023-05-21T12:55:14.009Z,26.10
2023-05-21T12:56:47.248Z,26.10
2023-05-21T12:58:23.066Z,26.10
2023-05-21T12:59:57.302Z,26.20
2023-05-21T13:01:30.117Z,26.20
2023-05-21T13:03:04.652Z,26.20
2023-05-21T13:04:37.694Z,26.20
2023-05-21T13:06:10.480Z,26.20
2023-05-21T13:07:46.696Z,26.20
2023-05-21T13:09:20.371Z,26.20
2023-05-21T13:10:53.154Z,26.20
2023-05-21T13:12:27.131Z,26.30
2023-05-21T13:13:59.878Z,26.20
2023-05-21T13:15:32.919Z,26.20
2023-05-21T13:17:05.824Z,26.30
2023-05-21T13:18:38.576Z,26.30
2023-05-21T13:20:13.437Z,26.40
2023-05-21T13:21:46.176Z,26.40
2023-05-21T13:23:20.458Z,26.50
2023-05-21T13:24:52.298Z,26.50
2023-05-21T13:26:25.047Z,26.50
2023-05-21T13:27:58.797Z,26.50
2023-05-21T13:29:31.543Z,26.60
2023-05-21T13:31:04.405Z,26.60
2023-05-21T13:32:37.532Z,26.60
2023-05-21T13:34:11.109Z,26.60
2023-05-21T13:35:45.619Z,26.60
2023-05-21T13:37:20.087Z,26.60
2023-05-21T13:38:56.312Z,26.60
2023-05-21T13:40:29.158Z,26.60
2023-05-21T13:42:01.937Z,26.70
2023-05-21T13:43:34.725Z,26.70
2023-05-21T13:45:09.238Z,26.70
2023-05-21T13:46:42.027Z,26.70
2023-05-21T13:48:14.835Z,26.70
2023-05-21T13:49:47.707Z,26.60
2023-05-21T13:51:37.471Z,26.70
2023-05-21T13:53:11.605Z,26.70
2023-05-21T13:54:45.746Z,26.80
2023-05-21T13:56:18.507Z,26.80
2023-05-21T13:57:51.258Z,26.80
2023-05-21T13:59:24.067Z,26.80
2023-05-21T14:00:56.910Z,26.80
2023-05-21T14:02:29.946Z,26.80
2023-05-21T14:04:05.401Z,26.80
2023-05-21T14:05:38.429Z,26.90
2023-05-21T14:07:12.203Z,26.80
2023-05-21T14:08:44.987Z,26.90
2023-05-21T14:10:20.297Z,26.80
2023-05-21T14:11:53.022Z,26.80
2023-05-21T14:13:25.950Z,26.90
2023-05-21T14:14:58.699Z,26.90
2023-05-21T14:16:31.766Z,26.90
2023-05-21T14:18:07.826Z,26.90
2023-05-21T14:19:41.135Z,26.90
2023-05-21T14:21:13.858Z,26.90
2023-05-21T14:22:46.633Z,26.80
2023-05-21T14:24:19.410Z,26.80
2023-05-21T14:25:53.624Z,26.90
2023-05-21T14:27:26.354Z,26.90
2023-05-21T14:28:59.138Z,27.00
2023-05-21T14:30:31.871Z,27.00
2023-05-21T14:32:04.727Z,27.10
2023-05-21T14:33:38.318Z,27.10
2023-05-21T14:35:11.057Z,27.10
2023-05-21T14:36:43.806Z,27.10
2023-05-21T14:38:16.615Z,27.10
2023-05-21T14:39:49.422Z,27.20
2023-05-21T14:41:27.418Z,27.20
2023-05-21T14:43:00.605Z,27.20
2023-05-21T14:44:33.388Z,27.20
2023-05-21T14:46:06.277Z,27.20
2023-05-21T14:47:39.119Z,27.30
2023-05-21T14:49:12.205Z,27.30
2023-05-21T14:50:45.288Z,27.20
2023-05-21T14:52:18.029Z,27.20
2023-05-21T14:53:51.089Z,27.30
2023-05-21T14:55:24.017Z,27.30
2023-05-21T14:56:58.084Z,27.30
2023-05-21T14:58:30.797Z,27.20
2023-05-21T15:00:03.944Z,27.20
2023-05-21T15:01:36.754Z,27.20
2023-05-21T15:03:09.648Z,27.20
2023-05-21T15:04:42.461Z,27.20
2023-05-21T15:06:15.304Z,27.20
2023-05-21T15:07:48.146Z,27.20
2023-05-21T15:09:20.891Z,27.20
2023-05-21T15:10:53.677Z,27.20
2023-05-21T15:12:27.765Z,27.20
2023-05-21T15:14:00.550Z,27.20
2023-05-21T15:15:33.325Z,27.20
2023-05-21T15:17:06.129Z,27.20
2023-05-21T15:18:38.912Z,27.20
2023-05-21T15:20:12.182Z,27.10
2023-05-21T15:21:44.939Z,27.10
2023-05-21T15:23:18.153Z,27.10
2023-05-21T15:24:50.941Z,27.10
2023-05-21T15:26:25.251Z,27.10
2023-05-21T15:27:59.425Z,27.20
2023-05-21T15:29:32.388Z,27.10
2023-05-21T15:31:05.201Z,27.20
2023-05-21T15:32:38.029Z,27.30
2023-05-21T15:34:10.845Z,27.30
2023-05-21T15:35:44.153Z,27.30
2023-05-21T15:37:17.321Z,27.40
2023-05-21T15:38:50.062Z,27.40
2023-05-21T15:40:25.476Z,27.40
2023-05-21T15:41:59.611Z,27.40
2023-05-21T15:43:33.779Z,27.40
2023-05-21T15:45:07.540Z,27.40
2023-05-21T15:46:40.525Z,27.30
2023-05-21T15:48:13.697Z,27.30
2023-05-21T15:49:46.584Z,27.40
2023-05-21T15:51:19.578Z,27.30
2023-05-21T15:52:53.545Z,27.30
2023-05-21T15:54:26.497Z,27.30
2023-05-21T15:55:59.231Z,27.30
2023-05-21T15:57:32.075Z,27.30
2023-05-21T15:59:06.170Z,27.30
2023-05-21T16:00:39.008Z,27.30
2023-05-21T16:02:11.850Z,27.30
2023-05-21T16:03:44.700Z,27.20
2023-05-21T16:05:17.534Z,27.20
2023-05-21T16:06:50.283Z,27.20
2023-05-21T16:08:23.024Z,27.20
2023-05-21T16:09:55.797Z,27.20
2023-05-21T16:11:29.228Z,27.20
2023-05-21T16:13:02.044Z,27.20
2023-05-21T16:14:36.156Z,27.20
2023-05-21T16:16:09.444Z,27.10
2023-05-21T16:17:42.232Z,27.10
2023-05-21T16:19:15.043Z,27.20
2023-05-21T16:20:48.230Z,27.10
2023-05-21T16:22:21.192Z,27.10
2023-05-21T16:23:54.017Z,27.10
2023-05-21T16:25:26.758Z,27.10
2023-05-21T16:26:59.508Z,27.10
2023-05-21T16:28:32.253Z,27.10
2023-05-21T16:30:07.677Z,27.10
2023-05-21T16:31:40.473Z,27.10
2023-05-21T16:33:12.454Z,27.00
2023-05-21T16:34:45.273Z,27.10
2023-05-21T16:36:18.094Z,27.10
2023-05-21T16:37:50.878Z,27.10
2023-05-21T16:39:23.609Z,27.10
2023-05-21T16:40:56.566Z,27.10
2023-05-21T16:42:29.305Z,27.10
2023-05-21T16:44:02.105Z,27.10
2023-05-21T16:45:41.321Z,27.10
2023-05-21T16:47:14.217Z,27.10
2023-05-21T16:48:46.949Z,27.10
2023-05-21T16:50:19.028Z,27.10
2023-05-21T16:51:51.961Z,27.10
2023-05-21T16:53:24.712Z,27.10
2023-05-21T16:54:57.459Z,27.10
2023-05-21T16:56:30.258Z,27.10
2023-05-21T16:58:04.238Z,27.10
2023-05-21T16:59:36.978Z,27.10
2023-05-21T17:01:11.192Z,27.10
2023-05-21T17:02:44.050Z,27.00
2023-05-21T17:04:16.945Z,27.00
2023-05-21T17:05:49.767Z,26.90
2023-05-21T17:07:22.548Z,26.80
2023-05-21T17:08:55.556Z,26.80
2023-05-21T17:10:28.479Z,26.80
2023-05-21T17:12:01.251Z,26.80
2023-05-21T17:13:34.021Z,26.80
2023-05-21T17:15:08.008Z,26.80
2023-05-21T17:16:42.751Z,26.80
2023-05-21T17:18:15.663Z,26.80
2023-05-21T17:19:48.433Z,26.70
2023-05-21T17:21:21.240Z,26.70
2023-05-21T17:22:54.016Z,26.70
2023-05-21T17:24:26.835Z,26.70
2023-05-21T17:25:59.570Z,26.70
2023-05-21T17:27:32.857Z,26.70
2023-05-21T17:29:05.712Z,26.70
2023-05-21T17:30:38.614Z,26.70
2023-05-21T17:32:12.973Z,26.70
2023-05-21T17:33:45.865Z,26.70
2023-05-21T17:35:18.641Z,26.70
2023-05-21T17:36:51.372Z,26.70
2023-05-21T17:38:24.147Z,26.70
2023-05-21T17:39:57.596Z,26.60
2023-05-21T17:41:31.143Z,26.60
2023-05-21T17:43:04.239Z,26.60
2023-05-21T17:44:37.072Z,26.60
2023-05-21T17:46:09.844Z,26.50
2023-05-21T17:47:44.016Z,26.50
2023-05-21T17:49:17.013Z,26.50
2023-05-21T17:50:49.889Z,26.50
2023-05-21T17:52:22.654Z,26.50
2023-05-21T17:53:55.400Z,26.50
2023-05-21T17:55:28.180Z,26.50
2023-05-21T17:57:00.919Z,26.50
2023-05-21T17:58:33.738Z,26.50
2023-05-21T18:00:08.471Z,26.50
2023-05-21T18:01:41.416Z,26.50
2023-05-21T18:03:15.556Z,26.50
2023-05-21T18:04:48.309Z,26.50
2023-05-21T18:06:21.105Z,26.40
2023-05-21T18:07:53.861Z,26.40
2023-05-21T18:09:26.623Z,26.40
2023-05-21T18:11:01.201Z,26.40
2023-05-21T18:12:34.408Z,26.30
2023-05-21T18:14:07.188Z,26.30
2023-05-21T18:15:39.909Z,26.30
2023-05-21T18:17:12.746Z,26.30
2023-05-21T18:18:46.874Z,26.30
2023-05-21T18:20:19.721Z,26.30
2023-05-21T18:21:52.472Z,26.30
2023-05-21T18:23:27.854Z,26.20
2023-05-21T18:25:01.449Z,26.20
2023-05-21T18:26:34.196Z,26.20
2023-05-21T18:28:07.143Z,26.20
2023-05-21T18:29:39.894Z,26.20
2023-05-21T18:31:12.846Z,26.20
2023-05-21T18:32:45.734Z,26.20
2023-05-21T18:34:19.887Z,26.10
2023-05-21T18:35:52.632Z,26.10
2023-05-21T18:37:25.636Z,26.10
2023-05-21T18:38:58.386Z,26.10
2023-05-21T18:40:33.112Z,26.00
2023-05-21T18:42:13.326Z,26.00
2023-05-21T18:43:47.053Z,26.00
2023-05-21T18:45:19.943Z,25.90
2023-05-21T18:46:54.376Z,25.90
2023-05-21T18:48:27.969Z,25.80
2023-05-21T18:50:02.029Z,25.80
2023-05-21T18:51:34.807Z,25.70
2023-05-21T18:53:07.613Z,25.70
2023-05-21T18:54:40.381Z,25.70
2023-05-21T18:56:13.113Z,25.70
2023-05-21T18:57:46.157Z,25.70
2023-05-21T18:59:18.911Z,25.70
2023-05-21T19:00:51.649Z,25.60
2023-05-21T19:02:25.361Z,25.60
2023-05-21T19:03:58.215Z,25.60
2023-05-21T19:05:32.839Z,25.50
2023-05-21T19:07:06.010Z,25.50
2023-05-21T19:08:38.989Z,25.40
2023-05-21T19:10:13.849Z,25.40
2023-05-21T19:11:46.699Z,25.40
2023-05-21T19:13:19.506Z,25.30
2023-05-21T19:14:52.249Z,25.30
2023-05-21T19:16:25.104Z,25.20
2023-05-21T19:17:58.001Z,25.20
2023-05-21T19:19:30.853Z,25.20
2023-05-21T19:21:05.176Z,25.10
2023-05-21T19:22:37.985Z,25.10
2023-05-21T19:24:10.799Z,25.10
2023-05-21T19:25:43.600Z,25.00
2023-05-21T19:27:16.405Z,24.90
2023-05-21T19:28:52.756Z,24.90
2023-05-21T19:30:25.533Z,24.90
2023-05-21T19:31:59.079Z,24.80
2023-05-21T19:33:31.966Z,24.80
2023-05-21T19:35:05.576Z,24.80
2023-05-21T19:36:52.093Z,24.80
2023-05-21T19:38:26.399Z,24.70
2023-05-21T19:39:59.191Z,24.70
2023-05-21T19:41:31.958Z,24.60
2023-05-21T19:43:04.788Z,24.60
2023-05-21T19:44:39.274Z,24.60
2023-05-21T19:46:12.091Z,24.50
2023-05-21T19:47:44.979Z,24.50
2023-05-21T19:49:19.755Z,24.50
2023-05-21T19:50:52.491Z,24.40
2023-05-21T19:52:26.572Z,24.40
2023-05-21T19:53:59.303Z,24.40
2023-05-21T19:55:35.218Z,24.30
2023-05-21T19:57:09.096Z,24.30
2023-05-21T19:58:46.933Z,24.20
2023-05-21T20:00:20.302Z,24.20
2023-05-21T20:01:53.054Z,24.20
2023-05-21T20:03:26.170Z,24.10
2023-05-21T20:04:59.767Z,24.10
2023-05-21T20:06:32.493Z,24.00
2023-05-21T20:08:06.693Z,24.00
2023-05-21T20:09:39.868Z,23.90